Flight Track Log - Related Links

Times and Time Zones

All times are in EDT time to prevent confusion due to time zone crossing. See the TAM3238 flight status page for this flight to view local times or setup timezone preferences in your user account.

Time Position Orientation Groundspeed Altitude Reporting Facility
EDT Latitude Longitude Course Direction KTS MPH feet Rate Location/Type
Tue 06:30:12 PM -23.6440 -46.6430 132° Southeast 157 181 3,300  Level FlightAware ADS-B
Tue 06:30:22 PM -23.6460 -46.6340 104° East 163 188 3,600 1,200 Climbing FlightAware ADS-B
Tue 06:30:42 PM -23.6410 -46.6220 66° East 174 200 3,900 1,116 Climbing FlightAware ADS-B
Tue 06:31:05 PM -23.6250 -46.6070 41° Northeast 212 244 4,400 1,200 Climbing FlightAware ADS-B
Tue 06:31:17 PM -23.6190 -46.5950 61° Northeast 231 266 4,600 1,355 Climbing FlightAware ADS-B
Tue 06:31:36 PM -23.6150 -46.5720 79° East 264 304 5,100 2,694 Climbing FlightAware ADS-B
Tue 06:32:06 PM -23.6040 -46.5350 72° East 261 300 6,800 3,714 Climbing FlightAware ADS-B
Tue 06:32:18 PM -23.5990 -46.5190 71° East 255 293 7,700 3,220 Climbing FlightAware ADS-B
Tue 06:32:47 PM -23.5900 -46.4820 75° East 264 304 9,000 2,038 Climbing FlightAware ADS-B
Tue 06:33:11 PM -23.5820 -46.4510 74° East 291 335 9,500 1,594 Climbing FlightAware ADS-B
Tue 06:33:51 PM -23.5680 -46.3880 76° East 334 384 10,700 3,000 Climbing FlightAware ADS-B
Tue 06:34:49 PM -23.5260 -46.3020 62° Northeast 299 344 14,400 3,662 Climbing FlightAware ADS-B
Tue 06:35:08 PM -23.5010 -46.2940 16° North 289 333 15,400 2,372 Climbing FlightAware ADS-B
Tue 06:35:32 PM -23.4750 -46.2990 350° North 289 333 16,100 1,569 Climbing FlightAware ADS-B
Tue 06:36:13 PM -23.4210 -46.3240 337° Northwest 317 365 17,100 1,229 Climbing FlightAware ADS-B
Tue 06:36:55 PM -23.3650 -46.3520 335° Northwest 349 402 17,800 1,012 Climbing FlightAware ADS-B
Tue 06:37:36 PM -23.2990 -46.3870 334° Northwest 381 438 18,500 1,301 Climbing FlightAware ADS-B
Tue 06:38:18 PM -23.2320 -46.4220 334° Northwest 393 452 19,600 1,200 Climbing FlightAware ADS-B
Tue 06:39:06 PM -23.1490 -46.4660 334° Northwest 423 487 20,300 1,023 Climbing FlightAware ADS-B
Tue 06:39:46 PM -23.0770 -46.5040 334° Northwest 436 502 21,100 1,520 Climbing FlightAware ADS-B
Tue 06:40:21 PM -23.0130 -46.5380 334° Northwest 435 501 22,200 1,103 Climbing FlightAware ADS-B
Tue 06:41:13 PM -22.9940 -46.5470 336° Northwest 431 496 22,700 2,176 Climbing FlightAware ADS-B
Tue 06:41:52 PM -22.8300 -46.5900 346° North 428 493 25,500 2,819 Climbing FlightAware ADS-B
Tue 06:42:36 PM -22.7520 -46.6030 351° North 431 496 26,600 1,571 Climbing FlightAware ADS-B
Tue 06:43:16 PM -22.6670 -46.6180 351° North 433 498 27,700 1,129 Climbing FlightAware ADS-B
Tue 06:44:01 PM -22.5740 -46.6330 352° North 450 518 28,200 750 Climbing FlightAware ADS-B
Tue 06:44:36 PM -22.5010 -46.6450 351° North 459 528 28,700 632 Climbing FlightAware ADS-B
Tue 06:45:17 PM -22.4160 -46.6580 352° North 457 526 29,000 209 Climbing FlightAware ADS-B
Tue 06:46:02 PM -22.3250 -46.6730 351° North 437 503 29,000  Level FlightAware ADS-B
Tue 06:46:42 PM -22.2410 -46.6860 352° North 440 506 29,000  Level FlightAware ADS-B
Tue 06:47:28 PM -22.1610 -46.6980 352° North 441 507 29,000  Level FlightAware ADS-B
Tue 06:48:12 PM -22.0580 -46.7140 352° North 441 507 29,000  Level FlightAware ADS-B
Tue 06:48:52 PM -21.9800 -46.7250 353° North 441 507 29,000  Level FlightAware ADS-B
Tue 06:49:32 PM -21.8970 -46.7380 352° North 441 507 29,000  Level FlightAware ADS-B
Tue 06:50:30 PM -21.7750 -46.7560 352° North 456 525 29,000  Level FlightAware ADS-B
Tue 06:51:15 PM -21.6840 -46.7690 352° North 455 524 29,000  Level FlightAware ADS-B
Tue 06:51:56 PM -21.5930 -46.7830 352° North 456 525 29,000  Level FlightAware ADS-B
Tue 06:52:38 PM -21.5060 -46.7960 352° North 456 525 29,000  Level FlightAware ADS-B
Tue 06:53:18 PM -21.4220 -46.8080 352° North 456 525 29,000  Level FlightAware ADS-B
Tue 06:54:03 PM -21.3310 -46.8220 352° North 456 525 29,000  Level FlightAware ADS-B
Tue 06:54:42 PM -21.2460 -46.8340 353° North 457 526 29,000  Level FlightAware ADS-B
Tue 06:55:24 PM -21.1580 -46.8470 352° North 457 526 29,000  Level FlightAware ADS-B
Tue 06:56:08 PM -21.0650 -46.8610 352° North 458 527 29,000  Level FlightAware ADS-B
Tue 06:56:49 PM -20.9810 -46.8730 352° North 458 527 29,000  Level FlightAware ADS-B
Tue 06:57:30 PM -20.8990 -46.9030 341° North 443 510 29,000  Level FlightAware ADS-B
Tue 06:58:10 PM -20.8300 -46.9490 328° Northwest 441 507 29,000  Level FlightAware ADS-B
Tue 06:58:54 PM -20.7530 -47.0000 328° Northwest 440 506 29,000  Level FlightAware ADS-B
Tue 06:59:38 PM -20.6770 -47.0490 329° Northwest 439 505 29,000  Level FlightAware ADS-B
Tue 07:00:14 PM -20.6140 -47.0900 329° Northwest 439 505 29,000  Level FlightAware ADS-B
Tue 07:00:58 PM -20.5380 -47.1400 328° Northwest 438 504 29,000  Level FlightAware ADS-B
Tue 07:01:40 PM -20.4650 -47.1870 329° Northwest 437 503 29,000  Level FlightAware ADS-B
Tue 07:02:25 PM -20.3870 -47.2370 329° Northwest 436 502 29,000  Level FlightAware ADS-B
Tue 07:03:06 PM -20.3160 -47.2840 328° Northwest 437 503 29,000  Level FlightAware ADS-B
Tue 07:03:51 PM -20.2380 -47.3340 329° Northwest 438 504 29,000  Level FlightAware ADS-B
Tue 07:04:30 PM -20.1700 -47.3780 329° Northwest 438 504 29,000 -651 Level FlightAware ADS-B
Tue 07:05:14 PM -20.0940 -47.4270 329° Northwest 427 491 28,100 -977 Descending FlightAware ADS-B
Tue 07:05:56 PM -20.0660 -47.4450 329° Northwest 420 483 27,600 -1,390 Descending FlightAware ADS-B
Tue 07:06:36 PM -19.9620 -47.5120 329° Northwest 385 443 26,200 -2,143 Descending FlightAware ADS-B
Tue 07:07:20 PM -19.8970 -47.5530 329° Northwest 381 438 24,600 -2,550 Descending FlightAware ADS-B
Tue 07:07:56 PM -19.8390 -47.5910 328° Northwest 393 452 22,800 -2,488 Descending FlightAware ADS-B
Tue 07:08:42 PM -19.7670 -47.6370 329° Northwest 389 448 21,200 -1,977 Descending FlightAware ADS-B
Tue 07:09:24 PM -19.7070 -47.6760 329° Northwest 384 442 19,900 -1,814 Descending FlightAware ADS-B
Tue 07:10:08 PM -19.6410 -47.7180 329° Northwest 375 432 18,600 -1,500 Descending FlightAware ADS-B
Tue 07:10:36 PM -19.5970 -47.7460 329° Northwest 364 419 18,100 -1,038 Descending FlightAware ADS-B
Tue 07:11:00 PM -19.5630 -47.7700 326° Northwest 359 413 17,700 -1,034 Descending FlightAware ADS-B
Tue 07:12:03 PM -19.4760 -47.8280 328° Northwest 361 415 16,600 -1,302 Descending FlightAware ADS-B
Tue 07:12:46 PM -19.4130 -47.8690 328° Northwest 358 412 15,400 -1,724 Descending FlightAware ADS-B
Tue 07:13:30 PM -19.3540 -47.9080 328° Northwest 355 409 14,100 -1,765 Descending FlightAware ADS-B
Tue 07:14:11 PM -19.2980 -47.9450 328° Northwest 352 405 12,900 -1,714 Descending FlightAware ADS-B
Tue 07:14:54 PM -19.2360 -47.9860 328° Northwest 343 395 11,700 -1,663 Descending FlightAware ADS-B
Tue 07:15:34 PM -19.1830 -48.0210 328° Northwest 328 377 10,600 -1,186 Descending FlightAware ADS-B
Tue 07:16:20 PM -19.1260 -48.0580 328° Northwest 294 338 10,000 -892 Descending FlightAware ADS-B
Tue 07:16:48 PM -19.0950 -48.0780 329° Northwest 287 330 9,500 -1,393 Descending FlightAware ADS-B
Tue 07:17:16 PM -19.0640 -48.0990 327° Northwest 290 334 8,700 -1,500 Descending FlightAware ADS-B
Tue 07:17:36 PM -19.0450 -48.1110 329° Northwest 290 334 8,300 -1,500 Descending FlightAware ADS-B
Tue 07:18:08 PM -19.0040 -48.1380 328° Northwest 291 335 7,400 -1,258 Descending FlightAware ADS-B
Tue 07:18:38 PM -18.9690 -48.1610 328° Northwest 288 331 7,000 -522 Descending FlightAware ADS-B
Tue 07:18:54 PM -18.9510 -48.1730 328° Northwest 288 331 7,000  Level FlightAware ADS-B
Tue 07:19:22 PM -18.9200 -48.1930 329° Northwest 285 328 7,000  Level FlightAware ADS-B
Tue 07:19:46 PM -18.8990 -48.2160 314° West 261 300 7,000 -649 Level FlightAware ADS-B
Tue 07:19:59 PM -18.8960 -48.2320 281° West 258 297 6,600 -1,895 Descending FlightAware ADS-B
Tue 07:20:24 PM -18.9100 -48.2600 242° Southwest 271 312 5,800 -1,527 Descending FlightAware ADS-B
Tue 07:20:54 PM -18.9350 -48.2890 228° Southwest 264 304 5,200 -1,034 Descending FlightAware ADS-B
Tue 07:21:22 PM -18.9560 -48.3130 227° Southwest 235 270 4,800 -381 Descending FlightAware ADS-B
Tue 07:21:57 PM -18.9770 -48.3370 227° Southwest 231 266 4,800  Level FlightAware ADS-B
Tue 07:24:00 PM -18.8828 -48.2256 48° Northeast  Level Estimated
Tue 07:25:00 PM -18.8828 -48.2256 223° Southwest  Level Estimated
Tue 07:26:00 PM -18.8828 -48.2256 223° Southwest  Level Estimated
Tue 07:27:00 PM -18.8828 -48.2256 223° Southwest  Level Estimated
Tue 07:28:00 PM -18.8828 -48.2256 223° Southwest  Level Estimated
Tue 07:29:00 PM -18.8828 -48.2256 223° Southwest  Level Estimated
Tue 07:30:00 PM -18.8828 -48.2256 223° Southwest  Level Estimated
Tue 07:31:00 PM -18.8828 -48.2256 223° Southwest  Level Estimated
Tue 07:32:00 PM -18.8828 -48.2256 223° Southwest  Level Estimated
Tue 07:33:00 PM -18.8828 -48.2256 223° Southwest  Level Estimated
Tue 07:34:00 PM -18.8828 -48.2256 223° Southwest  Level Estimated
Tue 07:35:00 PM -18.8828 -48.2256 223° Southwest  Level Estimated
Tue 07:36:00 PM -18.8828 -48.2256 223° Southwest  Level Estimated
Tue 07:37:00 PM -18.8828 -48.2256 223° Southwest  Level Estimated
Tue 07:38:00 PM -18.8828 -48.2256 223° Southwest  Level Estimated
Tue 07:39:00 PM -18.8828 -48.2256 223° Southwest  Level Estimated
Tue 07:40:00 PM -18.8828 -48.2256 223° Southwest  Level Estimated
Tue 07:41:00 PM -18.8828 -48.2256 223° Southwest  Level Estimated

Login

Don't have an account? Register now (free) for customized features, flight alerts, and more!